createdAt,value
2022-09-28T00:01:25.610Z,98940.59
2022-09-28T00:04:27.767Z,98929.06
2022-09-28T00:07:30.020Z,98935.34
2022-09-28T00:10:32.012Z,98939.94
2022-09-28T00:13:35.268Z,98933.00
2022-09-28T00:16:42.152Z,98932.88
2022-09-28T00:19:45.172Z,98934.50
2022-09-28T00:22:47.308Z,98931.78
2022-09-28T00:25:49.521Z,98934.16
2022-09-28T00:28:52.789Z,98935.09
2022-09-28T00:32:02.137Z,98938.09
2022-09-28T00:35:04.996Z,98938.31
2022-09-28T00:38:09.468Z,98937.16
2022-09-28T00:41:12.725Z,98946.06
2022-09-28T00:44:27.189Z,98947.47
2022-09-28T00:47:41.288Z,98943.22
2022-09-28T00:50:43.903Z,98947.13
2022-09-28T00:53:46.227Z,98944.44
2022-09-28T00:56:48.879Z,98934.94
2022-09-28T00:59:52.702Z,98943.72
2022-09-28T01:02:55.299Z,98947.63
2022-09-28T01:05:59.934Z,98956.00
2022-09-28T01:09:05.712Z,98952.59
2022-09-28T01:12:08.501Z,98959.66
2022-09-28T01:15:11.114Z,98955.59
2022-09-28T01:18:39.365Z,98965.31
2022-09-28T01:22:00.401Z,98952.91
2022-09-28T01:25:25.842Z,98952.00
2022-09-28T01:28:29.341Z,98944.84
2022-09-28T01:31:34.277Z,98946.31
2022-09-28T01:34:45.581Z,98941.53
2022-09-28T01:38:21.501Z,98932.63
2022-09-28T01:41:25.176Z,98933.59
2022-09-28T01:44:30.149Z,98936.31
2022-09-28T01:47:37.130Z,98911.63
2022-09-28T01:50:42.198Z,98924.56
2022-09-28T01:53:52.704Z,98928.06
2022-09-28T01:57:13.467Z,98926.09
2022-09-28T02:00:18.416Z,98920.69
2022-09-28T02:03:55.395Z,98921.66
2022-09-28T02:07:18.565Z,98915.16
2022-09-28T02:10:24.766Z,98917.75
2022-09-28T02:13:40.998Z,98910.78
2022-09-28T02:16:48.918Z,98920.47
2022-09-28T02:19:51.466Z,98923.94
2022-09-28T02:22:57.233Z,98929.16
2022-09-28T02:26:08.183Z,98929.38
2022-09-28T02:29:12.914Z,98930.28
2022-09-28T02:32:17.086Z,98933.41
2022-09-28T02:35:20.611Z,98926.34
2022-09-28T02:38:23.252Z,98939.78
2022-09-28T02:41:26.241Z,98940.81
2022-09-28T02:45:01.143Z,98940.41
2022-09-28T02:48:27.187Z,98945.06
2022-09-28T02:52:04.705Z,98931.75
2022-09-28T02:55:19.965Z,98924.66
2022-09-28T02:58:52.647Z,98928.16
2022-09-28T03:02:19.725Z,98925.69
2022-09-28T03:06:03.067Z,98922.00
2022-09-28T03:09:34.420Z,98917.50
2022-09-28T03:12:37.935Z,98919.34
2022-09-28T03:15:46.433Z,98919.25
2022-09-28T03:18:50.669Z,98920.88
2022-09-28T03:21:53.139Z,98921.88
2022-09-28T03:24:55.403Z,98922.84
2022-09-28T03:27:57.826Z,98920.34
2022-09-28T03:31:01.961Z,98923.97
2022-09-28T03:34:04.962Z,98920.03
2022-09-28T03:37:07.450Z,98916.59
2022-09-28T03:40:09.899Z,98920.03
2022-09-28T03:43:12.212Z,98922.97
2022-09-28T03:46:14.770Z,98922.78
2022-09-28T03:49:22.219Z,98929.72
2022-09-28T03:52:24.960Z,98928.97
2022-09-28T03:55:27.303Z,98932.38
2022-09-28T03:58:29.611Z,98933.25
2022-09-28T04:01:32.189Z,98926.47
2022-09-28T04:04:34.312Z,98931.84
2022-09-28T04:07:36.549Z,98927.44
2022-09-28T04:10:38.757Z,98933.84
2022-09-28T04:13:42.467Z,98928.13
2022-09-28T04:16:49.045Z,98933.13
2022-09-28T04:19:51.647Z,98937.47
2022-09-28T04:23:25.842Z,98939.38
2022-09-28T04:26:28.376Z,98934.97
2022-09-28T04:29:31.826Z,98929.41
2022-09-28T04:32:35.167Z,98927.53
2022-09-28T04:35:37.366Z,98929.50
2022-09-28T04:38:52.928Z,98933.03
2022-09-28T04:41:57.357Z,98927.94
2022-09-28T04:45:00.964Z,98936.72
2022-09-28T04:48:07.366Z,98924.66
2022-09-28T04:51:33.247Z,98945.88
2022-09-28T04:54:35.738Z,98939.69
2022-09-28T04:57:38.017Z,98941.53
2022-09-28T05:00:40.167Z,98937.13
2022-09-28T05:03:57.391Z,98945.88
2022-09-28T05:07:14.411Z,98939.63
2022-09-28T05:10:17.267Z,98940.38
2022-09-28T05:13:21.007Z,98931.56
2022-09-28T05:16:25.187Z,98931.72
2022-09-28T05:19:50.208Z,98938.41
2022-09-28T05:22:52.583Z,98952.84
2022-09-28T05:25:54.654Z,98943.13
2022-09-28T05:29:01.849Z,98951.28
2022-09-28T05:32:22.372Z,98953.81
2022-09-28T05:35:43.259Z,98943.22
2022-09-28T05:38:45.918Z,98936.84
2022-09-28T05:41:49.422Z,98943.88
2022-09-28T05:44:51.797Z,98953.50
2022-09-28T05:47:55.101Z,98948.19
2022-09-28T05:50:58.821Z,98958.22
2022-09-28T05:54:05.745Z,98951.94
2022-09-28T05:57:11.050Z,98962.75
2022-09-28T06:00:13.537Z,98958.91
2022-09-28T06:03:20.143Z,98968.78
2022-09-28T06:06:22.676Z,98965.41
2022-09-28T06:09:26.146Z,98965.34
2022-09-28T06:12:52.612Z,98973.31
2022-09-28T06:15:55.771Z,98974.94
2022-09-28T06:18:58.143Z,98957.03
2022-09-28T06:22:35.440Z,98956.88
2022-09-28T06:25:43.411Z,98965.38
2022-09-28T06:28:45.704Z,98973.09
2022-09-28T06:31:49.304Z,98966.84
2022-09-28T06:34:56.189Z,98973.66
2022-09-28T06:38:00.981Z,98964.69
2022-09-28T06:41:02.985Z,98967.97
2022-09-28T06:44:05.247Z,98961.19
2022-09-28T06:47:26.140Z,98973.03
2022-09-28T06:50:51.914Z,98961.44
2022-09-28T06:54:02.625Z,98972.09
2022-09-28T06:57:23.430Z,98979.28
2022-09-28T07:00:31.210Z,98983.56
2022-09-28T07:03:33.636Z,98978.53
2022-09-28T07:06:54.389Z,98989.28
2022-09-28T07:10:16.662Z,98987.53
2022-09-28T07:13:49.763Z,98984.72
2022-09-28T07:17:12.345Z,98987.97
2022-09-28T07:20:19.478Z,98992.22
2022-09-28T07:23:26.318Z,99001.59
2022-09-28T07:26:47.135Z,99004.19
2022-09-28T07:30:10.325Z,99000.34
2022-09-28T07:33:30.283Z,99001.09
2022-09-28T07:36:45.588Z,99000.66
2022-09-28T07:40:06.551Z,99001.06
2022-09-28T07:43:13.237Z,99000.84
2022-09-28T07:46:16.879Z,98992.59
2022-09-28T07:49:30.656Z,99002.28
2022-09-28T07:52:49.534Z,99004.06
2022-09-28T07:56:09.801Z,99017.38
2022-09-28T07:59:25.191Z,99017.59
2022-09-28T08:03:00.885Z,99014.97
2022-09-28T08:06:11.195Z,99022.47
2022-09-28T08:09:13.618Z,99016.63
2022-09-28T08:12:34.238Z,99031.41
2022-09-28T08:16:00.811Z,99036.41
2022-09-28T08:19:21.603Z,99037.66
2022-09-28T08:22:32.232Z,99037.00
2022-09-28T08:25:38.304Z,99037.66
2022-09-28T08:28:43.338Z,99032.72
2022-09-28T08:32:08.167Z,99032.31
2022-09-28T08:35:10.965Z,99035.59
2022-09-28T08:38:20.955Z,99029.06
2022-09-28T08:42:03.568Z,99038.00
2022-09-28T08:45:23.109Z,99032.88
2022-09-28T08:49:25.355Z,99030.59
2022-09-28T08:52:57.195Z,99028.03
2022-09-28T08:56:39.489Z,99024.75
2022-09-28T08:59:51.718Z,99029.88
2022-09-28T09:03:05.673Z,99027.44
2022-09-28T09:06:44.217Z,99036.00
2022-09-28T09:10:24.739Z,99034.63
2022-09-28T09:13:43.375Z,99038.69
2022-09-28T09:17:10.241Z,99030.06
2022-09-28T09:21:06.290Z,99025.72
2022-09-28T09:24:38.182Z,99030.78
2022-09-28T09:28:11.425Z,99019.69
2022-09-28T09:31:32.567Z,99023.94
2022-09-28T09:34:58.352Z,99023.13
2022-09-28T09:38:32.782Z,99025.19
2022-09-28T09:42:29.725Z,99020.84
2022-09-28T09:46:02.905Z,99028.56
2022-09-28T09:49:35.621Z,99035.91
2022-09-28T09:52:47.837Z,99033.06
2022-09-28T09:56:01.878Z,99043.94
2022-09-28T09:59:35.102Z,99048.16
2022-09-28T10:02:48.020Z,99040.50
2022-09-28T10:06:28.581Z,99048.19
2022-09-28T10:09:35.075Z,99044.34
2022-09-28T10:12:54.695Z,99050.75
2022-09-28T10:15:57.124Z,99054.84
2022-09-28T10:19:13.062Z,99055.44
2022-09-28T10:22:34.893Z,99059.84
2022-09-28T10:25:46.554Z,99066.28
2022-09-28T10:28:55.905Z,99053.59
2022-09-28T10:31:59.990Z,99057.34
2022-09-28T10:35:18.749Z,99061.47
2022-09-28T10:38:24.798Z,99050.94
2022-09-28T10:41:32.011Z,99046.41
2022-09-28T10:44:51.772Z,99045.31
2022-09-28T10:48:19.469Z,99042.56
2022-09-28T10:51:53.633Z,99047.22
2022-09-28T10:55:32.725Z,99051.09
2022-09-28T10:58:42.046Z,99048.94
2022-09-28T11:01:56.322Z,99045.91
2022-09-28T11:05:00.991Z,99041.41
2022-09-28T11:08:08.102Z,99056.19
2022-09-28T11:11:20.133Z,99048.66
2022-09-28T11:14:41.880Z,99048.91
2022-09-28T11:17:51.310Z,99050.31
2022-09-28T11:21:11.482Z,99054.53
2022-09-28T11:24:19.137Z,99042.53
2022-09-28T11:27:27.314Z,99045.88
2022-09-28T11:30:34.389Z,99049.75
2022-09-28T11:34:07.195Z,99042.03
2022-09-28T11:37:33.604Z,99041.81
2022-09-28T11:41:04.985Z,99043.63
2022-09-28T11:44:20.889Z,99048.47
2022-09-28T11:47:30.356Z,99054.00
2022-09-28T11:51:10.669Z,99043.97
2022-09-28T11:54:19.826Z,99052.16
2022-09-28T11:57:27.241Z,99045.28
2022-09-28T12:00:31.790Z,99043.25
2022-09-28T12:03:43.320Z,99044.66
2022-09-28T12:06:52.628Z,99044.47
2022-09-28T12:10:11.672Z,99055.16
2022-09-28T12:13:22.692Z,99061.53
2022-09-28T12:20:02.501Z,99074.72
2022-09-28T12:23:19.228Z,99067.94
2022-09-28T12:26:48.296Z,99067.41
2022-09-28T12:29:53.541Z,99062.91
2022-09-28T12:33:05.962Z,99060.84
2022-09-28T12:36:33.106Z,99070.91
2022-09-28T12:39:56.946Z,99067.41
2022-09-28T12:43:28.109Z,99078.63
2022-09-28T12:47:09.766Z,99073.66
2022-09-28T12:50:38.774Z,99075.00
2022-09-28T12:54:02.181Z,99077.09
2022-09-28T12:57:42.485Z,99075.38
2022-09-28T13:01:11.925Z,99048.78
2022-09-28T13:04:34.346Z,99064.09
2022-09-28T13:08:13.652Z,99057.97
2022-09-28T13:11:32.038Z,99057.44
2022-09-28T13:15:11.940Z,99055.78
2022-09-28T13:18:29.293Z,99056.91
2022-09-28T13:22:08.891Z,99050.88
2022-09-28T13:25:20.475Z,99045.59
2022-09-28T13:28:27.000Z,99042.25
2022-09-28T13:31:34.930Z,99039.16
2022-09-28T13:34:39.807Z,99032.81
2022-09-28T13:37:42.281Z,99034.03
2022-09-28T13:41:06.262Z,99028.13
2022-09-28T13:44:12.220Z,99030.78
2022-09-28T13:47:52.813Z,99024.53
2022-09-28T13:51:07.097Z,99029.16
2022-09-28T13:54:32.986Z,99037.31
2022-09-28T13:57:44.407Z,99026.94
2022-09-28T14:01:08.177Z,99038.19
2022-09-28T14:04:25.969Z,99031.25
2022-09-28T14:07:34.072Z,99037.75
2022-09-28T14:10:47.412Z,99028.78
2022-09-28T14:14:08.647Z,99037.59
2022-09-28T14:17:26.212Z,99034.84
2022-09-28T14:20:31.535Z,99035.25
2022-09-28T14:24:11.029Z,99035.13
2022-09-28T14:27:18.678Z,99043.53
2022-09-28T14:30:44.983Z,99037.47
2022-09-28T14:33:56.821Z,99032.59
2022-09-28T14:37:18.401Z,99035.75
2022-09-28T14:40:48.688Z,99028.94
2022-09-28T14:44:06.003Z,99041.19
2022-09-28T14:47:45.758Z,99034.78
2022-09-28T14:50:50.152Z,99044.75
2022-09-28T14:54:11.041Z,99043.25
2022-09-28T14:57:19.679Z,99043.97
2022-09-28T15:00:24.656Z,99043.31
2022-09-28T15:03:29.142Z,99040.78
2022-09-28T15:06:51.657Z,99046.94
2022-09-28T15:09:56.379Z,99051.03
2022-09-28T15:13:04.202Z,99052.94
2022-09-28T15:16:09.781Z,99057.25
2022-09-28T15:19:27.053Z,99061.75
2022-09-28T15:22:30.392Z,99055.59
2022-09-28T15:25:32.937Z,99061.97
2022-09-28T15:28:36.851Z,99055.03
2022-09-28T15:31:39.064Z,99057.88
2022-09-28T15:34:54.764Z,99057.34
2022-09-28T15:37:56.997Z,99055.97
2022-09-28T15:41:02.868Z,99046.44
2022-09-28T15:44:07.318Z,99033.75
2022-09-28T15:47:19.330Z,99028.84
2022-09-28T15:50:28.363Z,99028.38
2022-09-28T15:53:31.455Z,99031.72
2022-09-28T15:56:55.134Z,99051.78
2022-09-28T15:59:59.189Z,99045.72
2022-09-28T16:03:05.528Z,99051.06
2022-09-28T16:06:10.061Z,99055.63
2022-09-28T16:09:31.801Z,99053.00
2022-09-28T16:12:37.259Z,99045.19
2022-09-28T16:15:39.518Z,99045.63
2022-09-28T16:18:48.114Z,99051.19
2022-09-28T16:21:52.988Z,99052.28
2022-09-28T16:24:57.492Z,99031.41
2022-09-28T16:28:00.972Z,99036.13
2022-09-28T16:31:28.171Z,99050.56
2022-09-28T16:34:30.900Z,99039.34
2022-09-28T16:37:33.235Z,99048.69
2022-09-28T16:40:35.535Z,99035.84
2022-09-28T16:43:37.865Z,99036.19
2022-09-28T16:46:40.133Z,99040.06
2022-09-28T16:49:42.787Z,99035.91
2022-09-28T16:53:03.649Z,99041.53
2022-09-28T16:56:06.630Z,99030.34
2022-09-28T16:59:15.830Z,99031.31
2022-09-28T17:05:45.438Z,99044.69
2022-09-28T17:08:47.823Z,99050.28
2022-09-28T17:11:56.751Z,99045.16
2022-09-28T17:15:00.059Z,99033.50
2022-09-28T17:18:02.879Z,99034.31
2022-09-28T17:21:07.377Z,99037.84
2022-09-28T17:24:09.517Z,99035.22
2022-09-28T17:27:16.482Z,99027.28
2022-09-28T17:30:23.542Z,99025.56
2022-09-28T17:33:28.255Z,99031.88
2022-09-28T17:36:30.582Z,99038.19
2022-09-28T17:39:32.970Z,99047.38
2022-09-28T17:42:35.161Z,99046.50
2022-09-28T17:45:41.832Z,99061.44
2022-09-28T17:48:46.849Z,99073.09
2022-09-28T17:51:50.457Z,99083.88
2022-09-28T17:54:52.472Z,99084.19
2022-09-28T17:57:55.861Z,99076.47
2022-09-28T18:00:57.980Z,99089.97
2022-09-28T18:04:04.214Z,99084.38
2022-09-28T18:07:06.506Z,99089.69
2022-09-28T18:10:14.367Z,99091.53
2022-09-28T18:13:16.352Z,99090.34
2022-09-28T18:16:19.660Z,99095.31
2022-09-28T18:19:21.745Z,99103.16
2022-09-28T18:22:23.978Z,99105.31
2022-09-28T18:25:26.044Z,99096.38
2022-09-28T18:28:29.943Z,99109.59
2022-09-28T18:31:31.978Z,99122.34
2022-09-28T18:34:37.909Z,99121.31
2022-09-28T18:37:40.500Z,99124.09
2022-09-28T18:40:43.074Z,99120.63
2022-09-28T18:43:49.299Z,99115.72
2022-09-28T18:46:51.697Z,99124.72
2022-09-28T18:49:53.846Z,99116.47
2022-09-28T18:53:11.301Z,99120.25
2022-09-28T18:56:18.360Z,99123.94
2022-09-28T18:59:20.651Z,99129.34
2022-09-28T19:02:23.001Z,99117.22
2022-09-28T19:05:28.753Z,99116.19
2022-09-28T19:08:30.904Z,99123.59
2022-09-28T19:11:33.333Z,99114.22
2022-09-28T19:14:35.554Z,99100.59
2022-09-28T19:17:38.000Z,99124.94
2022-09-28T19:20:40.335Z,99113.72
2022-09-28T19:23:49.042Z,99102.69
2022-09-28T19:26:55.093Z,99100.78
2022-09-28T19:29:57.505Z,99098.31
2022-09-28T19:32:59.583Z,99087.69
2022-09-28T19:36:12.779Z,99077.84
2022-09-28T19:39:15.452Z,99079.38
2022-09-28T19:42:17.804Z,99092.59
2022-09-28T19:45:20.022Z,99078.53
2022-09-28T19:48:26.862Z,99086.09
2022-09-28T19:51:29.093Z,99087.97
2022-09-28T19:54:36.286Z,99097.47
2022-09-28T19:57:38.873Z,99080.97
2022-09-28T20:00:41.250Z,99090.81
2022-09-28T20:03:43.339Z,99101.53
2022-09-28T20:06:45.700Z,99102.31
2022-09-28T20:09:47.848Z,99087.34
2022-09-28T20:12:51.574Z,99099.50
2022-09-28T20:15:53.712Z,99093.41
2022-09-28T20:19:00.658Z,99101.38
2022-09-28T20:22:03.188Z,99098.31
2022-09-28T20:25:06.682Z,99102.53
2022-09-28T20:28:08.868Z,99101.34
2022-09-28T20:31:15.670Z,99103.72
2022-09-28T20:34:17.797Z,99101.72
2022-09-28T20:37:20.215Z,99107.72
2022-09-28T20:40:22.562Z,99094.63
2022-09-28T20:43:24.870Z,99106.84
2022-09-28T20:46:27.091Z,99103.06
2022-09-28T20:49:29.520Z,99105.69
2022-09-28T20:52:31.644Z,99099.44
2022-09-28T20:55:33.965Z,99099.50
2022-09-28T20:58:38.722Z,99097.78
2022-09-28T21:01:41.308Z,99102.19
2022-09-28T21:04:43.640Z,99103.00
2022-09-28T21:07:45.865Z,99084.38
2022-09-28T21:10:47.828Z,99094.16
2022-09-28T21:13:58.223Z,99084.56
2022-09-28T21:17:00.501Z,99098.94
2022-09-28T21:20:02.897Z,99116.16
2022-09-28T21:23:04.922Z,99114.75
2022-09-28T21:26:09.456Z,99107.50
2022-09-28T21:29:14.042Z,99118.81
2022-09-28T21:32:16.244Z,99120.56
2022-09-28T21:35:18.259Z,99119.63
2022-09-28T21:38:20.593Z,99118.75
2022-09-28T21:41:23.418Z,99113.44
2022-09-28T21:44:26.104Z,99112.56
2022-09-28T21:47:28.051Z,99116.22
2022-09-28T21:50:30.990Z,99111.69
2022-09-28T21:53:37.369Z,99113.34
2022-09-28T21:56:39.999Z,99122.28
2022-09-28T21:59:42.258Z,99122.28
2022-09-28T22:02:45.425Z,99127.88
2022-09-28T22:05:51.165Z,99128.91
2022-09-28T22:08:53.999Z,99129.88
2022-09-28T22:11:56.135Z,99127.34
2022-09-28T22:14:58.334Z,99133.75
2022-09-28T22:18:00.353Z,99130.28
2022-09-28T22:21:23.072Z,99125.03
2022-09-28T22:24:25.402Z,99134.13
2022-09-28T22:27:31.705Z,99141.44
2022-09-28T22:30:34.938Z,99135.75
2022-09-28T22:33:37.145Z,99147.38
2022-09-28T22:36:39.285Z,99155.47
2022-09-28T22:39:41.591Z,99153.88
2022-09-28T22:42:43.616Z,99169.41
2022-09-28T22:45:46.208Z,99169.66
2022-09-28T22:48:50.226Z,99161.53
2022-09-28T22:51:52.601Z,99160.88
2022-09-28T22:54:54.751Z,99154.56
2022-09-28T22:57:56.972Z,99152.72
2022-09-28T23:01:17.289Z,99157.03
2022-09-28T23:04:19.648Z,99150.84
2022-09-28T23:07:21.733Z,99150.78
2022-09-28T23:10:24.409Z,99158.84
2022-09-28T23:13:26.727Z,99157.75
2022-09-28T23:16:30.227Z,99155.25
2022-09-28T23:19:32.301Z,99164.16
2022-09-28T23:22:34.637Z,99169.44
2022-09-28T23:25:36.655Z,99178.34
2022-09-28T23:28:38.911Z,99174.78
2022-09-28T23:31:41.405Z,99171.25
2022-09-28T23:34:43.824Z,99169.56
2022-09-28T23:37:50.206Z,99168.09
2022-09-28T23:40:52.426Z,99168.22
2022-09-28T23:43:54.578Z,99172.59
2022-09-28T23:46:57.843Z,99179.72
2022-09-28T23:50:00.017Z,99177.97
2022-09-28T23:53:02.520Z,99179.94
2022-09-28T23:56:04.783Z,99184.31
2022-09-28T23:59:06.978Z,99186.22
